sensor_id;sensor_type;location;lat;lon;timestamp;temperature;humidity
32612;DHT22;19030;49.478;8.986;2022-08-30T00:02:02;16.90;90.30
32612;DHT22;19030;49.478;8.986;2022-08-30T00:04:02;16.90;90.40
32612;DHT22;19030;49.478;8.986;2022-08-30T00:06:08;16.90;90.40
32612;DHT22;19030;49.478;8.986;2022-08-30T00:08:09;16.90;90.50
32612;DHT22;19030;49.478;8.986;2022-08-30T00:10:10;16.90;90.60
32612;DHT22;19030;49.478;8.986;2022-08-30T00:12:12;16.90;90.60
32612;DHT22;19030;49.478;8.986;2022-08-30T00:14:12;16.90;90.70
32612;DHT22;19030;49.478;8.986;2022-08-30T00:16:13;16.90;90.80
32612;DHT22;19030;49.478;8.986;2022-08-30T00:18:15;16.80;90.90
32612;DHT22;19030;49.478;8.986;2022-08-30T00:20:25;16.80;91.20
32612;DHT22;19030;49.478;8.986;2022-08-30T00:22:25;16.70;91.50
32612;DHT22;19030;49.478;8.986;2022-08-30T00:24:26;16.60;91.50
32612;DHT22;19030;49.478;8.986;2022-08-30T00:26:27;16.60;91.60
32612;DHT22;19030;49.478;8.986;2022-08-30T00:28:28;16.60;91.60
32612;DHT22;19030;49.478;8.986;2022-08-30T00:30:29;16.50;91.80
32612;DHT22;19030;49.478;8.986;2022-08-30T00:32:30;16.50;92.00
32612;DHT22;19030;49.478;8.986;2022-08-30T00:34:30;16.50;92.10
32612;DHT22;19030;49.478;8.986;2022-08-30T00:36:31;16.50;92.20
32612;DHT22;19030;49.478;8.986;2022-08-30T00:38:32;16.40;92.40
32612;DHT22;19030;49.478;8.986;2022-08-30T00:40:33;16.40;92.60
32612;DHT22;19030;49.478;8.986;2022-08-30T00:42:34;16.40;92.70
32612;DHT22;19030;49.478;8.986;2022-08-30T00:44:35;16.40;92.70
32612;DHT22;19030;49.478;8.986;2022-08-30T00:46:36;16.40;92.70
32612;DHT22;19030;49.478;8.986;2022-08-30T00:48:44;16.40;92.80
32612;DHT22;19030;49.478;8.986;2022-08-30T00:50:52;16.40;93.00
32612;DHT22;19030;49.478;8.986;2022-08-30T00:52:56;16.40;93.10
32612;DHT22;19030;49.478;8.986;2022-08-30T00:54:57;16.30;93.20
32612;DHT22;19030;49.478;8.986;2022-08-30T00:56:58;16.30;93.40
32612;DHT22;19030;49.478;8.986;2022-08-30T00:59:01;16.30;93.50
32612;DHT22;19030;49.478;8.986;2022-08-30T01:01:03;16.30;93.50
32612;DHT22;19030;49.478;8.986;2022-08-30T01:03:05;16.30;93.60
32612;DHT22;19030;49.478;8.986;2022-08-30T01:05:10;16.40;93.70
32612;DHT22;19030;49.478;8.986;2022-08-30T01:07:12;16.40;93.90
32612;DHT22;19030;49.478;8.986;2022-08-30T01:09:13;16.40;93.80
32612;DHT22;19030;49.478;8.986;2022-08-30T01:11:17;16.40;93.90
32612;DHT22;19030;49.478;8.986;2022-08-30T01:13:20;16.40;94.00
32612;DHT22;19030;49.478;8.986;2022-08-30T01:15:22;16.40;94.10
32612;DHT22;19030;49.478;8.986;2022-08-30T01:17:24;16.30;94.30
32612;DHT22;19030;49.478;8.986;2022-08-30T01:19:49;16.30;94.40
32612;DHT22;19030;49.478;8.986;2022-08-30T01:21:58;16.30;94.50
32612;DHT22;19030;49.478;8.986;2022-08-30T01:24:01;16.30;94.50
32612;DHT22;19030;49.478;8.986;2022-08-30T01:26:04;16.30;94.80
32612;DHT22;19030;49.478;8.986;2022-08-30T01:28:10;16.20;94.90
32612;DHT22;19030;49.478;8.986;2022-08-30T01:30:12;16.20;95.00
32612;DHT22;19030;49.478;8.986;2022-08-30T01:32:22;16.20;95.10
32612;DHT22;19030;49.478;8.986;2022-08-30T01:34:23;16.20;95.20
32612;DHT22;19030;49.478;8.986;2022-08-30T01:36:24;16.20;95.20
32612;DHT22;19030;49.478;8.986;2022-08-30T01:38:58;16.10;95.30
32612;DHT22;19030;49.478;8.986;2022-08-30T01:41:00;16.20;95.40
32612;DHT22;19030;49.478;8.986;2022-08-30T01:43:07;16.10;95.50
32612;DHT22;19030;49.478;8.986;2022-08-30T01:45:08;16.10;95.60
32612;DHT22;19030;49.478;8.986;2022-08-30T01:47:09;16.10;95.70
32612;DHT22;19030;49.478;8.986;2022-08-30T01:49:14;16.00;95.80
32612;DHT22;19030;49.478;8.986;2022-08-30T01:51:15;16.00;95.90
32612;DHT22;19030;49.478;8.986;2022-08-30T01:53:15;16.00;96.10
32612;DHT22;19030;49.478;8.986;2022-08-30T01:55:16;16.00;96.20
32612;DHT22;19030;49.478;8.986;2022-08-30T01:57:18;16.10;96.30
32612;DHT22;19030;49.478;8.986;2022-08-30T01:59:20;16.10;96.30
32612;DHT22;19030;49.478;8.986;2022-08-30T02:01:24;16.10;96.30
32612;DHT22;19030;49.478;8.986;2022-08-30T02:03:26;16.10;96.20
32612;DHT22;19030;49.478;8.986;2022-08-30T02:05:33;16.10;96.10
32612;DHT22;19030;49.478;8.986;2022-08-30T02:07:33;16.20;96.20
32612;DHT22;19030;49.478;8.986;2022-08-30T02:09:34;16.20;96.20
32612;DHT22;19030;49.478;8.986;2022-08-30T02:11:37;16.20;96.20
32612;DHT22;19030;49.478;8.986;2022-08-30T02:13:39;16.20;96.10
32612;DHT22;19030;49.478;8.986;2022-08-30T02:15:40;16.20;96.10
32612;DHT22;19030;49.478;8.986;2022-08-30T02:17:41;16.20;96.00
32612;DHT22;19030;49.478;8.986;2022-08-30T02:19:42;16.10;96.10
32612;DHT22;19030;49.478;8.986;2022-08-30T02:21:43;16.10;96.10
32612;DHT22;19030;49.478;8.986;2022-08-30T02:23:44;16.10;96.20
32612;DHT22;19030;49.478;8.986;2022-08-30T02:25:45;16.00;96.30
32612;DHT22;19030;49.478;8.986;2022-08-30T02:27:45;16.00;96.50
32612;DHT22;19030;49.478;8.986;2022-08-30T02:29:46;16.00;96.60
32612;DHT22;19030;49.478;8.986;2022-08-30T02:31:47;16.00;96.60
32612;DHT22;19030;49.478;8.986;2022-08-30T02:33:49;16.00;96.60
32612;DHT22;19030;49.478;8.986;2022-08-30T02:35:50;16.00;96.60
32612;DHT22;19030;49.478;8.986;2022-08-30T02:37:51;16.10;96.60
32612;DHT22;19030;49.478;8.986;2022-08-30T02:39:52;16.10;96.50
32612;DHT22;19030;49.478;8.986;2022-08-30T02:41:52;16.10;96.50
32612;DHT22;19030;49.478;8.986;2022-08-30T02:43:53;16.10;96.60
32612;DHT22;19030;49.478;8.986;2022-08-30T02:45:57;16.10;96.60
32612;DHT22;19030;49.478;8.986;2022-08-30T02:47:58;16.20;96.70
32612;DHT22;19030;49.478;8.986;2022-08-30T02:49:59;16.20;96.60
32612;DHT22;19030;49.478;8.986;2022-08-30T02:52:03;16.10;96.50
32612;DHT22;19030;49.478;8.986;2022-08-30T02:54:04;16.10;96.50
32612;DHT22;19030;49.478;8.986;2022-08-30T02:56:05;16.10;96.50
32612;DHT22;19030;49.478;8.986;2022-08-30T02:58:06;16.10;96.60
32612;DHT22;19030;49.478;8.986;2022-08-30T03:00:08;16.10;96.60
32612;DHT22;19030;49.478;8.986;2022-08-30T03:02:11;16.10;96.80
32612;DHT22;19030;49.478;8.986;2022-08-30T03:04:11;16.10;96.90
32612;DHT22;19030;49.478;8.986;2022-08-30T03:06:13;16.00;96.90
32612;DHT22;19030;49.478;8.986;2022-08-30T03:08:13;16.00;96.90
32612;DHT22;19030;49.478;8.986;2022-08-30T03:10:15;15.90;97.00
32612;DHT22;19030;49.478;8.986;2022-08-30T03:12:15;15.90;97.10
32612;DHT22;19030;49.478;8.986;2022-08-30T03:14:16;15.80;97.10
32612;DHT22;19030;49.478;8.986;2022-08-30T03:16:17;15.80;97.20
32612;DHT22;19030;49.478;8.986;2022-08-30T03:18:18;15.80;97.30
32612;DHT22;19030;49.478;8.986;2022-08-30T03:20:21;15.80;97.40
32612;DHT22;19030;49.478;8.986;2022-08-30T03:22:21;15.80;97.40
32612;DHT22;19030;49.478;8.986;2022-08-30T03:24:22;15.80;97.30
32612;DHT22;19030;49.478;8.986;2022-08-30T03:26:23;15.80;97.30
32612;DHT22;19030;49.478;8.986;2022-08-30T03:28:23;15.70;97.30
32612;DHT22;19030;49.478;8.986;2022-08-30T03:30:24;15.70;97.30
32612;DHT22;19030;49.478;8.986;2022-08-30T03:32:25;15.70;97.30
32612;DHT22;19030;49.478;8.986;2022-08-30T03:34:26;15.70;97.40
32612;DHT22;19030;49.478;8.986;2022-08-30T03:36:26;15.70;97.80
32612;DHT22;19030;49.478;8.986;2022-08-30T03:38:27;15.60;97.30
32612;DHT22;19030;49.478;8.986;2022-08-30T03:40:28;15.60;97.30
32612;DHT22;19030;49.478;8.986;2022-08-30T03:42:28;15.60;97.30
32612;DHT22;19030;49.478;8.986;2022-08-30T03:44:29;15.60;97.30
32612;DHT22;19030;49.478;8.986;2022-08-30T03:46:29;15.60;97.40
32612;DHT22;19030;49.478;8.986;2022-08-30T03:48:30;15.50;97.40
32612;DHT22;19030;49.478;8.986;2022-08-30T03:50:31;15.50;97.50
32612;DHT22;19030;49.478;8.986;2022-08-30T03:52:32;15.50;97.60
32612;DHT22;19030;49.478;8.986;2022-08-30T03:54:33;15.50;97.80
32612;DHT22;19030;49.478;8.986;2022-08-30T03:56:33;15.50;97.90
32612;DHT22;19030;49.478;8.986;2022-08-30T03:58:34;15.40;97.70
32612;DHT22;19030;49.478;8.986;2022-08-30T04:00:34;15.50;97.70
32612;DHT22;19030;49.478;8.986;2022-08-30T04:02:35;15.40;97.60
32612;DHT22;19030;49.478;8.986;2022-08-30T04:04:35;15.40;97.70
32612;DHT22;19030;49.478;8.986;2022-08-30T04:06:36;15.40;97.90
32612;DHT22;19030;49.478;8.986;2022-08-30T04:08:37;15.40;97.90
32612;DHT22;19030;49.478;8.986;2022-08-30T04:10:38;15.40;98.00
32612;DHT22;19030;49.478;8.986;2022-08-30T04:12:38;15.30;98.20
32612;DHT22;19030;49.478;8.986;2022-08-30T04:14:39;15.30;98.20
32612;DHT22;19030;49.478;8.986;2022-08-30T04:16:39;15.30;98.40
32612;DHT22;19030;49.478;8.986;2022-08-30T04:18:40;15.20;98.50
32612;DHT22;19030;49.478;8.986;2022-08-30T04:20:41;15.20;98.60
32612;DHT22;19030;49.478;8.986;2022-08-30T04:22:42;15.20;98.70
32612;DHT22;19030;49.478;8.986;2022-08-30T04:24:42;15.20;98.70
32612;DHT22;19030;49.478;8.986;2022-08-30T04:26:43;15.20;98.80
32612;DHT22;19030;49.478;8.986;2022-08-30T04:28:43;15.20;98.90
32612;DHT22;19030;49.478;8.986;2022-08-30T04:30:44;15.10;98.90
32612;DHT22;19030;49.478;8.986;2022-08-30T04:32:45;15.20;99.00
32612;DHT22;19030;49.478;8.986;2022-08-30T04:34:45;15.20;99.00
32612;DHT22;19030;49.478;8.986;2022-08-30T04:36:47;15.20;98.90
32612;DHT22;19030;49.478;8.986;2022-08-30T04:38:48;15.20;99.00
32612;DHT22;19030;49.478;8.986;2022-08-30T04:40:49;15.20;99.10
32612;DHT22;19030;49.478;8.986;2022-08-30T04:42:49;15.10;99.00
32612;DHT22;19030;49.478;8.986;2022-08-30T04:44:54;15.20;99.10
32612;DHT22;19030;49.478;8.986;2022-08-30T04:46:54;15.10;99.20
32612;DHT22;19030;49.478;8.986;2022-08-30T04:48:55;15.10;99.20
32612;DHT22;19030;49.478;8.986;2022-08-30T04:50:55;15.10;99.20
32612;DHT22;19030;49.478;8.986;2022-08-30T04:52:56;15.10;99.30
32612;DHT22;19030;49.478;8.986;2022-08-30T04:54:57;15.10;99.30
32612;DHT22;19030;49.478;8.986;2022-08-30T04:56:58;15.20;99.30
32612;DHT22;19030;49.478;8.986;2022-08-30T04:59:00;15.20;99.30
32612;DHT22;19030;49.478;8.986;2022-08-30T05:01:00;15.20;99.40
32612;DHT22;19030;49.478;8.986;2022-08-30T05:03:01;15.20;99.50
32612;DHT22;19030;49.478;8.986;2022-08-30T05:05:02;15.20;99.50
32612;DHT22;19030;49.478;8.986;2022-08-30T05:07:22;15.30;99.50
32612;DHT22;19030;49.478;8.986;2022-08-30T05:09:22;15.30;99.50
32612;DHT22;19030;49.478;8.986;2022-08-30T05:11:23;15.30;99.60
32612;DHT22;19030;49.478;8.986;2022-08-30T05:13:23;15.30;99.50
32612;DHT22;19030;49.478;8.986;2022-08-30T05:15:24;15.40;99.60
32612;DHT22;19030;49.478;8.986;2022-08-30T05:17:25;15.40;99.60
32612;DHT22;19030;49.478;8.986;2022-08-30T05:19:25;15.40;99.50
32612;DHT22;19030;49.478;8.986;2022-08-30T05:21:27;15.40;99.40
32612;DHT22;19030;49.478;8.986;2022-08-30T05:23:28;15.50;99.40
32612;DHT22;19030;49.478;8.986;2022-08-30T05:25:32;15.50;99.50
32612;DHT22;19030;49.478;8.986;2022-08-30T05:27:33;15.50;99.60
32612;DHT22;19030;49.478;8.986;2022-08-30T05:29:34;15.50;99.70
32612;DHT22;19030;49.478;8.986;2022-08-30T05:31:35;15.60;99.70
32612;DHT22;19030;49.478;8.986;2022-08-30T05:33:36;15.70;99.40
32612;DHT22;19030;49.478;8.986;2022-08-30T05:35:37;15.70;99.40
32612;DHT22;19030;49.478;8.986;2022-08-30T05:37:38;15.80;99.40
32612;DHT22;19030;49.478;8.986;2022-08-30T05:39:39;15.80;99.30
32612;DHT22;19030;49.478;8.986;2022-08-30T05:41:39;15.90;99.20
32612;DHT22;19030;49.478;8.986;2022-08-30T05:43:40;16.00;99.10
32612;DHT22;19030;49.478;8.986;2022-08-30T05:45:40;16.10;99.00
32612;DHT22;19030;49.478;8.986;2022-08-30T05:47:41;16.10;98.90
32612;DHT22;19030;49.478;8.986;2022-08-30T05:49:42;16.20;98.70
32612;DHT22;19030;49.478;8.986;2022-08-30T05:51:42;16.30;98.40
32612;DHT22;19030;49.478;8.986;2022-08-30T05:53:44;16.50;98.40
32612;DHT22;19030;49.478;8.986;2022-08-30T05:55:45;16.60;98.10
32612;DHT22;19030;49.478;8.986;2022-08-30T05:57:46;16.70;97.70
32612;DHT22;19030;49.478;8.986;2022-08-30T05:59:47;16.80;97.60
32612;DHT22;19030;49.478;8.986;2022-08-30T06:01:47;16.90;97.50
32612;DHT22;19030;49.478;8.986;2022-08-30T06:03:48;16.90;97.30
32612;DHT22;19030;49.478;8.986;2022-08-30T06:05:49;17.00;97.00
32612;DHT22;19030;49.478;8.986;2022-08-30T06:07:53;17.10;96.80
32612;DHT22;19030;49.478;8.986;2022-08-30T06:09:54;17.20;96.60
32612;DHT22;19030;49.478;8.986;2022-08-30T06:11:54;17.50;96.20
32612;DHT22;19030;49.478;8.986;2022-08-30T06:13:55;18.10;94.90
32612;DHT22;19030;49.478;8.986;2022-08-30T06:15:56;18.80;93.30
32612;DHT22;19030;49.478;8.986;2022-08-30T06:17:56;19.60;91.60
32612;DHT22;19030;49.478;8.986;2022-08-30T06:19:57;20.40;89.30
32612;DHT22;19030;49.478;8.986;2022-08-30T06:21:57;21.10;85.20
32612;DHT22;19030;49.478;8.986;2022-08-30T06:23:58;21.60;81.80
32612;DHT22;19030;49.478;8.986;2022-08-30T06:26:03;22.20;78.40
32612;DHT22;19030;49.478;8.986;2022-08-30T06:28:05;22.80;75.80
32612;DHT22;19030;49.478;8.986;2022-08-30T06:30:06;23.30;72.80
32612;DHT22;19030;49.478;8.986;2022-08-30T06:32:07;23.70;69.80
32612;DHT22;19030;49.478;8.986;2022-08-30T06:34:08;24.00;67.80
32612;DHT22;19030;49.478;8.986;2022-08-30T06:36:11;24.10;65.30
32612;DHT22;19030;49.478;8.986;2022-08-30T06:38:12;24.20;64.80
32612;DHT22;19030;49.478;8.986;2022-08-30T06:40:13;24.30;64.00
32612;DHT22;19030;49.478;8.986;2022-08-30T06:42:15;24.40;63.10
32612;DHT22;19030;49.478;8.986;2022-08-30T06:44:16;24.70;63.00
32612;DHT22;19030;49.478;8.986;2022-08-30T06:46:29;24.90;61.60
32612;DHT22;19030;49.478;8.986;2022-08-30T06:48:30;25.10;60.00
32612;DHT22;19030;49.478;8.986;2022-08-30T06:50:30;25.40;58.70
32612;DHT22;19030;49.478;8.986;2022-08-30T06:52:31;25.60;58.20
32612;DHT22;19030;49.478;8.986;2022-08-30T06:54:31;25.80;58.00
32612;DHT22;19030;49.478;8.986;2022-08-30T06:56:32;25.90;57.60
32612;DHT22;19030;49.478;8.986;2022-08-30T06:58:34;26.10;56.30
32612;DHT22;19030;49.478;8.986;2022-08-30T07:00:35;26.20;55.80
32612;DHT22;19030;49.478;8.986;2022-08-30T07:02:36;26.30;55.70
32612;DHT22;19030;49.478;8.986;2022-08-30T07:04:37;26.40;55.60
32612;DHT22;19030;49.478;8.986;2022-08-30T07:06:38;26.50;54.80
32612;DHT22;19030;49.478;8.986;2022-08-30T07:08:39;26.80;54.70
32612;DHT22;19030;49.478;8.986;2022-08-30T07:10:40;27.00;53.70
32612;DHT22;19030;49.478;8.986;2022-08-30T07:12:41;27.20;53.30
32612;DHT22;19030;49.478;8.986;2022-08-30T07:14:42;27.20;53.30
32612;DHT22;19030;49.478;8.986;2022-08-30T07:16:44;27.30;52.80
32612;DHT22;19030;49.478;8.986;2022-08-30T07:18:44;27.40;52.60
32612;DHT22;19030;49.478;8.986;2022-08-30T07:20:51;27.40;52.50
32612;DHT22;19030;49.478;8.986;2022-08-30T07:22:51;27.50;52.30
32612;DHT22;19030;49.478;8.986;2022-08-30T07:24:52;27.60;52.20
32612;DHT22;19030;49.478;8.986;2022-08-30T07:26:52;27.50;52.30
32612;DHT22;19030;49.478;8.986;2022-08-30T07:28:53;27.60;51.50
32612;DHT22;19030;49.478;8.986;2022-08-30T07:30:54;27.50;51.80
32612;DHT22;19030;49.478;8.986;2022-08-30T07:32:54;27.40;51.40
32612;DHT22;19030;49.478;8.986;2022-08-30T07:34:55;27.30;51.40
32612;DHT22;19030;49.478;8.986;2022-08-30T07:36:56;27.10;52.10
32612;DHT22;19030;49.478;8.986;2022-08-30T07:38:56;26.80;51.80
32612;DHT22;19030;49.478;8.986;2022-08-30T07:40:57;26.80;52.80
32612;DHT22;19030;49.478;8.986;2022-08-30T07:43:00;26.90;52.50
32612;DHT22;19030;49.478;8.986;2022-08-30T07:45:02;27.10;52.20
32612;DHT22;19030;49.478;8.986;2022-08-30T07:47:02;27.30;51.50
32612;DHT22;19030;49.478;8.986;2022-08-30T07:49:04;27.30;51.50
32612;DHT22;19030;49.478;8.986;2022-08-30T07:51:09;27.40;51.30
32612;DHT22;19030;49.478;8.986;2022-08-30T07:53:11;27.50;51.00
32612;DHT22;19030;49.478;8.986;2022-08-30T07:55:12;27.50;51.00
32612;DHT22;19030;49.478;8.986;2022-08-30T07:57:13;27.30;51.00
32612;DHT22;19030;49.478;8.986;2022-08-30T07:59:14;27.10;51.50
32612;DHT22;19030;49.478;8.986;2022-08-30T08:01:15;27.10;52.20
32612;DHT22;19030;49.478;8.986;2022-08-30T08:03:16;27.10;52.00
32612;DHT22;19030;49.478;8.986;2022-08-30T08:05:16;27.30;51.90
32612;DHT22;19030;49.478;8.986;2022-08-30T08:07:17;27.40;51.70
32612;DHT22;19030;49.478;8.986;2022-08-30T08:09:17;27.50;51.20
32612;DHT22;19030;49.478;8.986;2022-08-30T08:11:23;27.60;51.50
32612;DHT22;19030;49.478;8.986;2022-08-30T08:13:24;27.40;50.80
32612;DHT22;19030;49.478;8.986;2022-08-30T08:15:25;27.30;51.70
32612;DHT22;19030;49.478;8.986;2022-08-30T08:17:26;27.50;51.30
32612;DHT22;19030;49.478;8.986;2022-08-30T08:19:27;27.70;51.00
32612;DHT22;19030;49.478;8.986;2022-08-30T08:21:28;28.00;50.60
32612;DHT22;19030;49.478;8.986;2022-08-30T08:23:29;28.20;50.20
32612;DHT22;19030;49.478;8.986;2022-08-30T08:25:29;28.20;49.70
32612;DHT22;19030;49.478;8.986;2022-08-30T08:27:30;28.30;49.70
32612;DHT22;19030;49.478;8.986;2022-08-30T08:29:31;28.50;49.50
32612;DHT22;19030;49.478;8.986;2022-08-30T08:31:32;28.90;48.10
32612;DHT22;19030;49.478;8.986;2022-08-30T08:33:32;29.40;48.20
32612;DHT22;19030;49.478;8.986;2022-08-30T08:35:33;30.00;46.90
32612;DHT22;19030;49.478;8.986;2022-08-30T08:37:33;31.00;45.40
32612;DHT22;19030;49.478;8.986;2022-08-30T08:39:34;32.20;42.80
32612;DHT22;19030;49.478;8.986;2022-08-30T08:44:05;34.80;38.20
32612;DHT22;19030;49.478;8.986;2022-08-30T08:46:31;36.20;36.00
32612;DHT22;19030;49.478;8.986;2022-08-30T08:50:38;38.10;33.30
32612;DHT22;19030;49.478;8.986;2022-08-30T08:53:16;38.70;31.80
32612;DHT22;19030;49.478;8.986;2022-08-30T08:55:34;39.30;30.30
32612;DHT22;19030;49.478;8.986;2022-08-30T08:57:37;39.70;29.70
32612;DHT22;19030;49.478;8.986;2022-08-30T08:59:37;39.90;29.50
32612;DHT22;19030;49.478;8.986;2022-08-30T09:01:38;39.90;29.00
32612;DHT22;19030;49.478;8.986;2022-08-30T09:03:39;39.90;28.70
32612;DHT22;19030;49.478;8.986;2022-08-30T09:05:42;39.80;28.70
32612;DHT22;19030;49.478;8.986;2022-08-30T09:07:48;39.90;28.60
32612;DHT22;19030;49.478;8.986;2022-08-30T09:09:49;39.70;28.80
32612;DHT22;19030;49.478;8.986;2022-08-30T09:11:50;40.20;28.60
32612;DHT22;19030;49.478;8.986;2022-08-30T09:13:50;40.50;28.10
32612;DHT22;19030;49.478;8.986;2022-08-30T09:15:52;40.30;27.60
32612;DHT22;19030;49.478;8.986;2022-08-30T09:18:00;40.10;27.90
32612;DHT22;19030;49.478;8.986;2022-08-30T09:20:01;40.40;27.50
32612;DHT22;19030;49.478;8.986;2022-08-30T09:22:11;40.60;27.30
32612;DHT22;19030;49.478;8.986;2022-08-30T09:24:14;40.80;27.50
32612;DHT22;19030;49.478;8.986;2022-08-30T09:26:30;40.60;27.50
32612;DHT22;19030;49.478;8.986;2022-08-30T09:28:49;40.50;26.90
32612;DHT22;19030;49.478;8.986;2022-08-30T09:31:07;39.80;27.00
32612;DHT22;19030;49.478;8.986;2022-08-30T09:33:19;38.80;27.10
32612;DHT22;19030;49.478;8.986;2022-08-30T09:37:26;37.80;28.60
32612;DHT22;19030;49.478;8.986;2022-08-30T09:39:33;37.80;28.50
32612;DHT22;19030;49.478;8.986;2022-08-30T09:41:39;38.60;27.90
32612;DHT22;19030;49.478;8.986;2022-08-30T09:43:41;39.40;26.90
32612;DHT22;19030;49.478;8.986;2022-08-30T09:45:45;39.80;26.00
32612;DHT22;19030;49.478;8.986;2022-08-30T09:47:46;39.80;26.20
32612;DHT22;19030;49.478;8.986;2022-08-30T09:49:47;40.30;26.70
32612;DHT22;19030;49.478;8.986;2022-08-30T09:52:16;40.90;25.50
32612;DHT22;19030;49.478;8.986;2022-08-30T09:54:25;41.50;25.50
32612;DHT22;19030;49.478;8.986;2022-08-30T10:01:06;41.70;24.90
32612;DHT22;19030;49.478;8.986;2022-08-30T10:08:02;42.90;24.00
32612;DHT22;19030;49.478;8.986;2022-08-30T10:10:24;42.20;24.20
32612;DHT22;19030;49.478;8.986;2022-08-30T10:12:39;41.80;24.50
32612;DHT22;19030;49.478;8.986;2022-08-30T10:19:35;42.00;24.30
32612;DHT22;19030;49.478;8.986;2022-08-30T10:21:44;41.60;24.40
32612;DHT22;19030;49.478;8.986;2022-08-30T10:23:53;41.10;25.30
32612;DHT22;19030;49.478;8.986;2022-08-30T10:30:47;42.10;24.40
32612;DHT22;19030;49.478;8.986;2022-08-30T10:35:15;42.00;24.50
32612;DHT22;19030;49.478;8.986;2022-08-30T10:37:19;42.00;24.40
32612;DHT22;19030;49.478;8.986;2022-08-30T10:39:25;42.30;24.60
32612;DHT22;19030;49.478;8.986;2022-08-30T10:41:34;41.60;24.70
32612;DHT22;19030;49.478;8.986;2022-08-30T10:43:48;40.10;25.80
32612;DHT22;19030;49.478;8.986;2022-08-30T10:45:52;39.00;26.60
32612;DHT22;19030;49.478;8.986;2022-08-30T10:48:02;38.60;27.20
32612;DHT22;19030;49.478;8.986;2022-08-30T10:56:42;37.50;27.40
32612;DHT22;19030;49.478;8.986;2022-08-30T10:58:45;37.50;27.80
32612;DHT22;19030;49.478;8.986;2022-08-30T11:03:41;37.30;27.60
32612;DHT22;19030;49.478;8.986;2022-08-30T11:14:42;36.00;29.60
32612;DHT22;19030;49.478;8.986;2022-08-30T11:16:46;36.30;28.80
32612;DHT22;19030;49.478;8.986;2022-08-30T11:18:51;36.00;29.00
32612;DHT22;19030;49.478;8.986;2022-08-30T11:21:14;35.60;29.20
32612;DHT22;19030;49.478;8.986;2022-08-30T11:23:34;35.80;29.30
32612;DHT22;19030;49.478;8.986;2022-08-30T11:26:03;36.00;29.10
32612;DHT22;19030;49.478;8.986;2022-08-30T11:28:04;36.10;28.80
32612;DHT22;19030;49.478;8.986;2022-08-30T11:32:56;35.60;29.10
32612;DHT22;19030;49.478;8.986;2022-08-30T11:34:59;35.70;29.20
32612;DHT22;19030;49.478;8.986;2022-08-30T11:37:01;35.90;28.80
32612;DHT22;19030;49.478;8.986;2022-08-30T11:39:06;36.30;28.90
32612;DHT22;19030;49.478;8.986;2022-08-30T11:41:10;36.50;28.70
32612;DHT22;19030;49.478;8.986;2022-08-30T11:45:41;36.30;28.20
32612;DHT22;19030;49.478;8.986;2022-08-30T11:52:30;35.60;28.80
32612;DHT22;19030;49.478;8.986;2022-08-30T11:59:22;35.40;29.80
32612;DHT22;19030;49.478;8.986;2022-08-30T12:03:32;35.30;29.70
32612;DHT22;19030;49.478;8.986;2022-08-30T12:07:58;35.60;29.20
32612;DHT22;19030;49.478;8.986;2022-08-30T12:10:01;35.30;29.20
32612;DHT22;19030;49.478;8.986;2022-08-30T12:14:46;35.40;29.40
32612;DHT22;19030;49.478;8.986;2022-08-30T12:16:48;36.00;29.30
32612;DHT22;19030;49.478;8.986;2022-08-30T12:19:15;36.10;28.80
32612;DHT22;19030;49.478;8.986;2022-08-30T12:23:45;36.50;28.60
32612;DHT22;19030;49.478;8.986;2022-08-30T12:25:46;36.30;28.60
32612;DHT22;19030;49.478;8.986;2022-08-30T12:27:47;36.80;28.40
32612;DHT22;19030;49.478;8.986;2022-08-30T12:29:53;37.00;28.60
32612;DHT22;19030;49.478;8.986;2022-08-30T12:32:00;36.60;28.40
32612;DHT22;19030;49.478;8.986;2022-08-30T12:34:02;36.80;28.30
32612;DHT22;19030;49.478;8.986;2022-08-30T12:36:02;36.90;28.60
32612;DHT22;19030;49.478;8.986;2022-08-30T12:38:05;36.90;28.60
32612;DHT22;19030;49.478;8.986;2022-08-30T12:40:17;36.50;28.40
32612;DHT22;19030;49.478;8.986;2022-08-30T12:42:30;36.30;28.50
32612;DHT22;19030;49.478;8.986;2022-08-30T12:44:31;36.20;28.90
32612;DHT22;19030;49.478;8.986;2022-08-30T12:46:32;36.30;29.60
32612;DHT22;19030;49.478;8.986;2022-08-30T12:48:36;36.50;28.60
32612;DHT22;19030;49.478;8.986;2022-08-30T12:50:48;36.40;28.80
32612;DHT22;19030;49.478;8.986;2022-08-30T12:53:00;36.00;29.10
32612;DHT22;19030;49.478;8.986;2022-08-30T12:57:10;36.20;29.00
32612;DHT22;19030;49.478;8.986;2022-08-30T12:59:43;36.40;28.90
32612;DHT22;19030;49.478;8.986;2022-08-30T13:01:45;36.70;28.50
32612;DHT22;19030;49.478;8.986;2022-08-30T13:03:58;37.10;28.30
32612;DHT22;19030;49.478;8.986;2022-08-30T13:05:59;37.20;28.20
32612;DHT22;19030;49.478;8.986;2022-08-30T13:08:19;36.90;28.30
32612;DHT22;19030;49.478;8.986;2022-08-30T13:10:20;36.40;28.70
32612;DHT22;19030;49.478;8.986;2022-08-30T13:12:23;36.00;29.00
32612;DHT22;19030;49.478;8.986;2022-08-30T13:16:36;35.30;29.90
32612;DHT22;19030;49.478;8.986;2022-08-30T13:18:38;35.20;29.90
32612;DHT22;19030;49.478;8.986;2022-08-30T13:20:38;35.50;30.00
32612;DHT22;19030;49.478;8.986;2022-08-30T13:22:42;35.60;29.60
32612;DHT22;19030;49.478;8.986;2022-08-30T13:24:59;35.60;29.80
32612;DHT22;19030;49.478;8.986;2022-08-30T13:27:03;35.30;30.20
32612;DHT22;19030;49.478;8.986;2022-08-30T13:29:06;34.90;30.00
32612;DHT22;19030;49.478;8.986;2022-08-30T13:31:07;34.50;30.30
32612;DHT22;19030;49.478;8.986;2022-08-30T13:33:07;34.50;31.00
32612;DHT22;19030;49.478;8.986;2022-08-30T13:35:11;34.60;30.90
32612;DHT22;19030;49.478;8.986;2022-08-30T13:37:19;34.60;31.30
32612;DHT22;19030;49.478;8.986;2022-08-30T13:39:21;34.70;31.00
32612;DHT22;19030;49.478;8.986;2022-08-30T13:41:21;34.60;31.30
32612;DHT22;19030;49.478;8.986;2022-08-30T13:43:22;34.90;30.70
32612;DHT22;19030;49.478;8.986;2022-08-30T13:45:23;35.40;30.30
32612;DHT22;19030;49.478;8.986;2022-08-30T13:47:23;35.40;30.00
32612;DHT22;19030;49.478;8.986;2022-08-30T13:49:30;35.20;30.00
32612;DHT22;19030;49.478;8.986;2022-08-30T13:51:31;35.10;30.20
32612;DHT22;19030;49.478;8.986;2022-08-30T13:53:32;35.00;30.60
32612;DHT22;19030;49.478;8.986;2022-08-30T13:55:34;35.10;30.20
32612;DHT22;19030;49.478;8.986;2022-08-30T13:57:35;35.10;30.10
32612;DHT22;19030;49.478;8.986;2022-08-30T13:59:35;35.00;30.30
32612;DHT22;19030;49.478;8.986;2022-08-30T14:01:36;34.70;30.60
32612;DHT22;19030;49.478;8.986;2022-08-30T14:03:37;34.30;31.00
32612;DHT22;19030;49.478;8.986;2022-08-30T14:05:38;33.70;31.30
32612;DHT22;19030;49.478;8.986;2022-08-30T14:07:39;33.30;32.00
32612;DHT22;19030;49.478;8.986;2022-08-30T14:09:40;33.10;32.50
32612;DHT22;19030;49.478;8.986;2022-08-30T14:11:41;32.80;32.70
32612;DHT22;19030;49.478;8.986;2022-08-30T14:13:42;32.60;33.30